sensor_id;sensor_type;location;lat;lon;timestamp;P1;durP1;ratioP1;P2;durP2;ratioP2
32228;SDS011;18717;48.034;11.186;2023-03-19T00:00:29;46.85;;;18.70;;
32228;SDS011;18717;48.034;11.186;2023-03-19T00:02:57;53.28;;;19.17;;
32228;SDS011;18717;48.034;11.186;2023-03-19T00:05:25;53.95;;;19.33;;
32228;SDS011;18717;48.034;11.186;2023-03-19T00:07:53;50.70;;;18.85;;
32228;SDS011;18717;48.034;11.186;2023-03-19T00:10:21;36.92;;;17.42;;
32228;SDS011;18717;48.034;11.186;2023-03-19T00:12:48;47.90;;;18.52;;
32228;SDS011;18717;48.034;11.186;2023-03-19T00:15:18;19.00;;;12.13;;
32228;SDS011;18717;48.034;11.186;2023-03-19T00:17:45;15.80;;;12.35;;
32228;SDS011;18717;48.034;11.186;2023-03-19T00:20:13;17.13;;;13.15;;
32228;SDS011;18717;48.034;11.186;2023-03-19T00:22:43;14.30;;;12.80;;
32228;SDS011;18717;48.034;11.186;2023-03-19T00:25:11;16.45;;;14.75;;
32228;SDS011;18717;48.034;11.186;2023-03-19T00:27:39;28.92;;;18.00;;
32228;SDS011;18717;48.034;11.186;2023-03-19T00:30:07;45.45;;;23.40;;
32228;SDS011;18717;48.034;11.186;2023-03-19T00:32:37;48.17;;;23.95;;
32228;SDS011;18717;48.034;11.186;2023-03-19T00:35:06;38.72;;;21.30;;
32228;SDS011;18717;48.034;11.186;2023-03-19T00:37:34;45.15;;;21.05;;
32228;SDS011;18717;48.034;11.186;2023-03-19T00:40:02;31.42;;;19.52;;
32228;SDS011;18717;48.034;11.186;2023-03-19T00:42:31;27.27;;;17.15;;
32228;SDS011;18717;48.034;11.186;2023-03-19T00:44:58;22.13;;;15.93;;
32228;SDS011;18717;48.034;11.186;2023-03-19T00:47:26;19.50;;;14.45;;
32228;SDS011;18717;48.034;11.186;2023-03-19T00:49:55;20.13;;;14.32;;
32228;SDS011;18717;48.034;11.186;2023-03-19T00:52:23;18.52;;;15.35;;
32228;SDS011;18717;48.034;11.186;2023-03-19T00:54:50;16.70;;;14.48;;
32228;SDS011;18717;48.034;11.186;2023-03-19T00:57:18;17.63;;;15.30;;
32228;SDS011;18717;48.034;11.186;2023-03-19T00:59:46;23.42;;;14.98;;
32228;SDS011;18717;48.034;11.186;2023-03-19T01:02:14;18.52;;;15.88;;
32228;SDS011;18717;48.034;11.186;2023-03-19T01:04:42;18.33;;;14.73;;
32228;SDS011;18717;48.034;11.186;2023-03-19T01:07:11;16.38;;;14.65;;
32228;SDS011;18717;48.034;11.186;2023-03-19T01:09:39;16.55;;;14.90;;
32228;SDS011;18717;48.034;11.186;2023-03-19T01:12:08;18.17;;;14.55;;
32228;SDS011;18717;48.034;11.186;2023-03-19T01:14:35;18.60;;;14.98;;
32228;SDS011;18717;48.034;11.186;2023-03-19T01:17:03;17.75;;;14.50;;
32228;SDS011;18717;48.034;11.186;2023-03-19T01:19:31;19.10;;;15.93;;
32228;SDS011;18717;48.034;11.186;2023-03-19T01:21:59;17.05;;;15.25;;
32228;SDS011;18717;48.034;11.186;2023-03-19T01:24:29;14.93;;;13.52;;
32228;SDS011;18717;48.034;11.186;2023-03-19T01:26:57;18.42;;;14.55;;
32228;SDS011;18717;48.034;11.186;2023-03-19T01:29:24;15.60;;;14.05;;
32228;SDS011;18717;48.034;11.186;2023-03-19T01:31:52;14.00;;;12.50;;
32228;SDS011;18717;48.034;11.186;2023-03-19T01:34:20;19.52;;;13.30;;
32228;SDS011;18717;48.034;11.186;2023-03-19T01:36:48;15.52;;;13.65;;
32228;SDS011;18717;48.034;11.186;2023-03-19T01:39:15;19.30;;;14.75;;
32228;SDS011;18717;48.034;11.186;2023-03-19T01:41:44;15.43;;;13.73;;
32228;SDS011;18717;48.034;11.186;2023-03-19T01:44:22;15.80;;;14.23;;
32228;SDS011;18717;48.034;11.186;2023-03-19T01:46:54;18.20;;;14.10;;
32228;SDS011;18717;48.034;11.186;2023-03-19T01:49:23;16.25;;;14.50;;
32228;SDS011;18717;48.034;11.186;2023-03-19T01:51:52;17.58;;;14.57;;
32228;SDS011;18717;48.034;11.186;2023-03-19T01:54:21;15.65;;;14.15;;
32228;SDS011;18717;48.034;11.186;2023-03-19T01:56:51;24.40;;;15.18;;
32228;SDS011;18717;48.034;11.186;2023-03-19T01:59:22;18.40;;;14.57;;
32228;SDS011;18717;48.034;11.186;2023-03-19T02:01:53;16.80;;;12.95;;
32228;SDS011;18717;48.034;11.186;2023-03-19T02:04:23;16.67;;;14.23;;
32228;SDS011;18717;48.034;11.186;2023-03-19T02:06:52;15.23;;;13.73;;
32228;SDS011;18717;48.034;11.186;2023-03-19T02:09:21;20.08;;;13.25;;
32228;SDS011;18717;48.034;11.186;2023-03-19T02:11:52;16.48;;;13.50;;
32228;SDS011;18717;48.034;11.186;2023-03-19T02:14:21;15.20;;;12.95;;
32228;SDS011;18717;48.034;11.186;2023-03-19T02:16:48;19.42;;;15.20;;
32228;SDS011;18717;48.034;11.186;2023-03-19T02:19:17;15.15;;;13.75;;
32228;SDS011;18717;48.034;11.186;2023-03-19T02:21:49;17.48;;;13.50;;
32228;SDS011;18717;48.034;11.186;2023-03-19T02:24:18;18.00;;;13.75;;
32228;SDS011;18717;48.034;11.186;2023-03-19T02:26:49;16.45;;;14.13;;
32228;SDS011;18717;48.034;11.186;2023-03-19T02:29:17;17.83;;;14.23;;
32228;SDS011;18717;48.034;11.186;2023-03-19T02:31:45;15.30;;;13.70;;
32228;SDS011;18717;48.034;11.186;2023-03-19T02:37:03;35.95;;;16.08;;
32228;SDS011;18717;48.034;11.186;2023-03-19T02:39:35;18.00;;;12.40;;
32228;SDS011;18717;48.034;11.186;2023-03-19T02:42:07;15.82;;;13.38;;
32228;SDS011;18717;48.034;11.186;2023-03-19T02:44:36;15.32;;;13.18;;
32228;SDS011;18717;48.034;11.186;2023-03-19T02:47:04;16.77;;;13.68;;
32228;SDS011;18717;48.034;11.186;2023-03-19T02:49:31;16.40;;;13.73;;
32228;SDS011;18717;48.034;11.186;2023-03-19T02:51:59;16.63;;;13.23;;
32228;SDS011;18717;48.034;11.186;2023-03-19T02:54:27;14.93;;;13.55;;
32228;SDS011;18717;48.034;11.186;2023-03-19T02:56:54;17.05;;;13.90;;
32228;SDS011;18717;48.034;11.186;2023-03-19T02:59:24;17.48;;;13.65;;
32228;SDS011;18717;48.034;11.186;2023-03-19T03:01:52;15.48;;;13.60;;
32228;SDS011;18717;48.034;11.186;2023-03-19T03:04:20;14.30;;;12.88;;
32228;SDS011;18717;48.034;11.186;2023-03-19T03:06:47;14.50;;;13.05;;
32228;SDS011;18717;48.034;11.186;2023-03-19T03:09:15;15.88;;;13.63;;
32228;SDS011;18717;48.034;11.186;2023-03-19T03:11:43;17.85;;;13.35;;
32228;SDS011;18717;48.034;11.186;2023-03-19T03:14:11;16.25;;;13.85;;
32228;SDS011;18717;48.034;11.186;2023-03-19T03:16:40;17.70;;;13.43;;
32228;SDS011;18717;48.034;11.186;2023-03-19T03:19:08;14.50;;;13.00;;
32228;SDS011;18717;48.034;11.186;2023-03-19T03:21:36;15.50;;;13.77;;
32228;SDS011;18717;48.034;11.186;2023-03-19T03:24:05;18.02;;;14.25;;
32228;SDS011;18717;48.034;11.186;2023-03-19T03:26:33;15.65;;;14.10;;
32228;SDS011;18717;48.034;11.186;2023-03-19T03:29:03;16.35;;;14.65;;
32228;SDS011;18717;48.034;11.186;2023-03-19T03:31:31;15.75;;;14.23;;
32228;SDS011;18717;48.034;11.186;2023-03-19T03:34:01;17.10;;;13.45;;
32228;SDS011;18717;48.034;11.186;2023-03-19T03:36:29;13.75;;;12.38;;
32228;SDS011;18717;48.034;11.186;2023-03-19T03:38:57;14.50;;;13.00;;
32228;SDS011;18717;48.034;11.186;2023-03-19T03:41:25;16.25;;;12.70;;
32228;SDS011;18717;48.034;11.186;2023-03-19T03:43:52;13.52;;;12.32;;
32228;SDS011;18717;48.034;11.186;2023-03-19T03:46:20;16.45;;;13.57;;
32228;SDS011;18717;48.034;11.186;2023-03-19T03:48:48;14.70;;;12.93;;
32228;SDS011;18717;48.034;11.186;2023-03-19T03:51:18;15.82;;;13.50;;
32228;SDS011;18717;48.034;11.186;2023-03-19T03:53:45;17.50;;;14.63;;
32228;SDS011;18717;48.034;11.186;2023-03-19T03:56:13;15.38;;;13.50;;
32228;SDS011;18717;48.034;11.186;2023-03-19T03:58:41;16.00;;;14.40;;
32228;SDS011;18717;48.034;11.186;2023-03-19T04:01:09;17.98;;;14.25;;
32228;SDS011;18717;48.034;11.186;2023-03-19T04:03:38;17.13;;;13.15;;
32228;SDS011;18717;48.034;11.186;2023-03-19T04:06:06;14.32;;;12.93;;
32228;SDS011;18717;48.034;11.186;2023-03-19T04:08:35;15.50;;;13.93;;
32228;SDS011;18717;48.034;11.186;2023-03-19T04:11:05;14.77;;;12.65;;
32228;SDS011;18717;48.034;11.186;2023-03-19T04:13:33;16.02;;;14.32;;
32228;SDS011;18717;48.034;11.186;2023-03-19T04:16:02;15.60;;;13.00;;
32228;SDS011;18717;48.034;11.186;2023-03-19T04:18:30;14.75;;;12.13;;
32228;SDS011;18717;48.034;11.186;2023-03-19T04:20:57;14.25;;;12.75;;
32228;SDS011;18717;48.034;11.186;2023-03-19T04:23:25;16.38;;;13.20;;
32228;SDS011;18717;48.034;11.186;2023-03-19T04:25:58;15.68;;;12.82;;
32228;SDS011;18717;48.034;11.186;2023-03-19T04:28:26;13.90;;;12.48;;
32228;SDS011;18717;48.034;11.186;2023-03-19T04:30:57;15.20;;;12.15;;
32228;SDS011;18717;48.034;11.186;2023-03-19T04:33:25;15.13;;;11.65;;
32228;SDS011;18717;48.034;11.186;2023-03-19T04:35:53;14.13;;;12.73;;
32228;SDS011;18717;48.034;11.186;2023-03-19T04:38:21;14.63;;;12.00;;
32228;SDS011;18717;48.034;11.186;2023-03-19T04:40:51;13.35;;;11.98;;
32228;SDS011;18717;48.034;11.186;2023-03-19T04:43:20;13.57;;;12.25;;
32228;SDS011;18717;48.034;11.186;2023-03-19T04:45:48;15.02;;;13.43;;
32228;SDS011;18717;48.034;11.186;2023-03-19T04:48:16;18.20;;;13.25;;
32228;SDS011;18717;48.034;11.186;2023-03-19T04:50:44;13.63;;;12.18;;
32228;SDS011;18717;48.034;11.186;2023-03-19T04:53:12;14.65;;;13.18;;
32228;SDS011;18717;48.034;11.186;2023-03-19T04:55:40;14.13;;;12.80;;
32228;SDS011;18717;48.034;11.186;2023-03-19T04:58:07;17.80;;;12.95;;
32228;SDS011;18717;48.034;11.186;2023-03-19T05:00:37;14.38;;;12.55;;
32228;SDS011;18717;48.034;11.186;2023-03-19T05:03:05;14.32;;;12.60;;
32228;SDS011;18717;48.034;11.186;2023-03-19T05:05:32;14.20;;;12.60;;
32228;SDS011;18717;48.034;11.186;2023-03-19T05:08:00;20.80;;;13.02;;
32228;SDS011;18717;48.034;11.186;2023-03-19T05:10:28;16.00;;;12.75;;
32228;SDS011;18717;48.034;11.186;2023-03-19T05:12:57;13.63;;;12.35;;
32228;SDS011;18717;48.034;11.186;2023-03-19T05:15:25;17.40;;;12.70;;
32228;SDS011;18717;48.034;11.186;2023-03-19T05:17:54;13.75;;;12.35;;
32228;SDS011;18717;48.034;11.186;2023-03-19T05:20:22;13.70;;;11.75;;
32228;SDS011;18717;48.034;11.186;2023-03-19T05:22:50;15.13;;;13.52;;
32228;SDS011;18717;48.034;11.186;2023-03-19T05:25:18;18.02;;;13.40;;
32228;SDS011;18717;48.034;11.186;2023-03-19T05:27:46;14.15;;;11.95;;
32228;SDS011;18717;48.034;11.186;2023-03-19T05:30:14;14.55;;;13.07;;
32228;SDS011;18717;48.034;11.186;2023-03-19T05:32:43;15.38;;;11.50;;
32228;SDS011;18717;48.034;11.186;2023-03-19T05:35:13;16.08;;;12.55;;
32228;SDS011;18717;48.034;11.186;2023-03-19T05:37:42;13.73;;;12.48;;
32228;SDS011;18717;48.034;11.186;2023-03-19T05:40:10;15.85;;;12.25;;
32228;SDS011;18717;48.034;11.186;2023-03-19T05:42:38;14.30;;;12.80;;
32228;SDS011;18717;48.034;11.186;2023-03-19T05:45:06;14.07;;;12.57;;
32228;SDS011;18717;48.034;11.186;2023-03-19T05:47:34;14.50;;;12.98;;
32228;SDS011;18717;48.034;11.186;2023-03-19T05:50:02;13.73;;;12.30;;
32228;SDS011;18717;48.034;11.186;2023-03-19T05:52:31;14.15;;;12.63;;
32228;SDS011;18717;48.034;11.186;2023-03-19T05:54:59;14.15;;;12.75;;
32228;SDS011;18717;48.034;11.186;2023-03-19T05:57:27;13.73;;;12.07;;
32228;SDS011;18717;48.034;11.186;2023-03-19T05:59:54;17.17;;;13.82;;
32228;SDS011;18717;48.034;11.186;2023-03-19T06:02:22;13.15;;;11.75;;
32228;SDS011;18717;48.034;11.186;2023-03-19T06:04:50;13.50;;;12.13;;
32228;SDS011;18717;48.034;11.186;2023-03-19T06:07:18;13.25;;;11.88;;
32228;SDS011;18717;48.034;11.186;2023-03-19T06:09:47;12.85;;;11.55;;
32228;SDS011;18717;48.034;11.186;2023-03-19T06:12:14;13.45;;;12.25;;
32228;SDS011;18717;48.034;11.186;2023-03-19T06:14:42;13.18;;;11.50;;
32228;SDS011;18717;48.034;11.186;2023-03-19T06:17:12;14.30;;;11.63;;
32228;SDS011;18717;48.034;11.186;2023-03-19T06:19:40;15.32;;;12.77;;
32228;SDS011;18717;48.034;11.186;2023-03-19T06:22:07;13.98;;;11.50;;
32228;SDS011;18717;48.034;11.186;2023-03-19T06:24:35;13.30;;;10.68;;
32228;SDS011;18717;48.034;11.186;2023-03-19T06:27:04;12.20;;;11.02;;
32228;SDS011;18717;48.034;11.186;2023-03-19T06:29:32;12.13;;;11.02;;
32228;SDS011;18717;48.034;11.186;2023-03-19T06:32:00;11.25;;;10.32;;
32228;SDS011;18717;48.034;11.186;2023-03-19T06:34:27;11.82;;;10.65;;
32228;SDS011;18717;48.034;11.186;2023-03-19T06:36:55;12.27;;;11.13;;
32228;SDS011;18717;48.034;11.186;2023-03-19T06:39:23;11.18;;;10.10;;
32228;SDS011;18717;48.034;11.186;2023-03-19T06:41:51;12.13;;;11.18;;
32228;SDS011;18717;48.034;11.186;2023-03-19T06:44:20;11.45;;;10.45;;
32228;SDS011;18717;48.034;11.186;2023-03-19T06:46:50;12.23;;;11.05;;
32228;SDS011;18717;48.034;11.186;2023-03-19T06:49:18;11.63;;;10.43;;
32228;SDS011;18717;48.034;11.186;2023-03-19T06:51:45;13.00;;;11.70;;
32228;SDS011;18717;48.034;11.186;2023-03-19T06:54:13;12.30;;;11.23;;
32228;SDS011;18717;48.034;11.186;2023-03-19T06:56:41;11.38;;;10.48;;
32228;SDS011;18717;48.034;11.186;2023-03-19T06:59:09;11.95;;;11.05;;
32228;SDS011;18717;48.034;11.186;2023-03-19T07:01:40;12.55;;;11.43;;
32228;SDS011;18717;48.034;11.186;2023-03-19T07:04:07;12.30;;;11.18;;
32228;SDS011;18717;48.034;11.186;2023-03-19T07:06:36;11.93;;;10.73;;
32228;SDS011;18717;48.034;11.186;2023-03-19T07:09:03;11.35;;;10.45;;
32228;SDS011;18717;48.034;11.186;2023-03-19T07:11:31;12.90;;;11.75;;
32228;SDS011;18717;48.034;11.186;2023-03-19T07:14:01;11.73;;;10.90;;
32228;SDS011;18717;48.034;11.186;2023-03-19T07:16:29;12.65;;;11.02;;
32228;SDS011;18717;48.034;11.186;2023-03-19T07:18:58;12.63;;;11.27;;
32228;SDS011;18717;48.034;11.186;2023-03-19T07:21:25;12.95;;;11.75;;
32228;SDS011;18717;48.034;11.186;2023-03-19T07:23:54;14.13;;;12.75;;
32228;SDS011;18717;48.034;11.186;2023-03-19T07:26:22;13.40;;;12.10;;
32228;SDS011;18717;48.034;11.186;2023-03-19T07:28:49;14.25;;;12.52;;
32228;SDS011;18717;48.034;11.186;2023-03-19T07:31:17;13.13;;;11.93;;
32228;SDS011;18717;48.034;11.186;2023-03-19T07:33:45;12.63;;;11.45;;
32228;SDS011;18717;48.034;11.186;2023-03-19T07:36:14;12.23;;;11.25;;
32228;SDS011;18717;48.034;11.186;2023-03-19T07:38:41;11.65;;;10.68;;
32228;SDS011;18717;48.034;11.186;2023-03-19T07:41:09;13.27;;;12.00;;
32228;SDS011;18717;48.034;11.186;2023-03-19T07:43:37;13.10;;;12.00;;
32228;SDS011;18717;48.034;11.186;2023-03-19T07:46:04;12.93;;;11.93;;
32228;SDS011;18717;48.034;11.186;2023-03-19T07:48:33;17.23;;;12.70;;
32228;SDS011;18717;48.034;11.186;2023-03-19T07:51:00;14.45;;;12.68;;
32228;SDS011;18717;48.034;11.186;2023-03-19T07:53:30;13.27;;;11.98;;
32228;SDS011;18717;48.034;11.186;2023-03-19T07:55:57;13.98;;;12.68;;
32228;SDS011;18717;48.034;11.186;2023-03-19T07:58:25;14.50;;;13.18;;
32228;SDS011;18717;48.034;11.186;2023-03-19T08:00:53;13.13;;;11.95;;
32228;SDS011;18717;48.034;11.186;2023-03-19T08:03:21;12.80;;;11.80;;
32228;SDS011;18717;48.034;11.186;2023-03-19T08:05:48;12.80;;;11.82;;
32228;SDS011;18717;48.034;11.186;2023-03-19T08:08:16;12.60;;;11.50;;
32228;SDS011;18717;48.034;11.186;2023-03-19T08:10:45;13.15;;;11.95;;
32228;SDS011;18717;48.034;11.186;2023-03-19T08:13:16;12.82;;;11.73;;
32228;SDS011;18717;48.034;11.186;2023-03-19T08:15:43;13.52;;;12.02;;
32228;SDS011;18717;48.034;11.186;2023-03-19T08:18:11;12.90;;;11.68;;
32228;SDS011;18717;48.034;11.186;2023-03-19T08:20:39;13.75;;;12.55;;
32228;SDS011;18717;48.034;11.186;2023-03-19T08:23:06;12.95;;;11.77;;
32228;SDS011;18717;48.034;11.186;2023-03-19T08:25:34;13.98;;;12.60;;
32228;SDS011;18717;48.034;11.186;2023-03-19T08:28:03;13.43;;;12.27;;
32228;SDS011;18717;48.034;11.186;2023-03-19T08:30:31;13.02;;;11.98;;
32228;SDS011;18717;48.034;11.186;2023-03-19T08:32:59;12.77;;;11.57;;
32228;SDS011;18717;48.034;11.186;2023-03-19T08:35:27;13.35;;;11.70;;
32228;SDS011;18717;48.034;11.186;2023-03-19T08:37:55;13.73;;;12.38;;
32228;SDS011;18717;48.034;11.186;2023-03-19T08:40:23;13.55;;;12.25;;
32228;SDS011;18717;48.034;11.186;2023-03-19T08:42:51;12.30;;;11.43;;
32228;SDS011;18717;48.034;11.186;2023-03-19T08:45:21;19.25;;;12.77;;
32228;SDS011;18717;48.034;11.186;2023-03-19T08:47:49;42.58;;;23.10;;
32228;SDS011;18717;48.034;11.186;2023-03-19T08:50:17;30.55;;;18.88;;
32228;SDS011;18717;48.034;11.186;2023-03-19T08:52:45;20.45;;;14.85;;
32228;SDS011;18717;48.034;11.186;2023-03-19T08:55:13;32.35;;;19.63;;
32228;SDS011;18717;48.034;11.186;2023-03-19T08:57:41;16.95;;;15.32;;
32228;SDS011;18717;48.034;11.186;2023-03-19T09:00:09;18.77;;;14.93;;
32228;SDS011;18717;48.034;11.186;2023-03-19T09:02:39;13.77;;;12.65;;
32228;SDS011;18717;48.034;11.186;2023-03-19T09:05:07;18.40;;;15.45;;
32228;SDS011;18717;48.034;11.186;2023-03-19T09:07:35;14.25;;;12.85;;
32228;SDS011;18717;48.034;11.186;2023-03-19T09:10:02;13.80;;;12.40;;
32228;SDS011;18717;48.034;11.186;2023-03-19T09:12:31;16.35;;;13.52;;
32228;SDS011;18717;48.034;11.186;2023-03-19T09:14:59;14.77;;;13.43;;
32228;SDS011;18717;48.034;11.186;2023-03-19T09:17:26;22.50;;;17.23;;
32228;SDS011;18717;48.034;11.186;2023-03-19T09:19:55;15.82;;;14.32;;
32228;SDS011;18717;48.034;11.186;2023-03-19T09:22:23;13.65;;;12.45;;
32228;SDS011;18717;48.034;11.186;2023-03-19T09:24:51;13.60;;;12.45;;
32228;SDS011;18717;48.034;11.186;2023-03-19T09:27:18;13.68;;;12.32;;
32228;SDS011;18717;48.034;11.186;2023-03-19T09:29:46;13.27;;;12.30;;
32228;SDS011;18717;48.034;11.186;2023-03-19T09:32:14;13.35;;;12.35;;
32228;SDS011;18717;48.034;11.186;2023-03-19T09:34:42;14.25;;;12.93;;
32228;SDS011;18717;48.034;11.186;2023-03-19T09:37:12;14.10;;;12.65;;
32228;SDS011;18717;48.034;11.186;2023-03-19T09:39:40;13.20;;;12.13;;
32228;SDS011;18717;48.034;11.186;2023-03-19T09:42:20;13.25;;;12.23;;
32228;SDS011;18717;48.034;11.186;2023-03-19T09:44:55;14.35;;;12.40;;
32228;SDS011;18717;48.034;11.186;2023-03-19T09:47:25;14.95;;;12.40;;
32228;SDS011;18717;48.034;11.186;2023-03-19T09:49:54;14.95;;;13.65;;
32228;SDS011;18717;48.034;11.186;2023-03-19T09:52:29;14.80;;;13.48;;
32228;SDS011;18717;48.034;11.186;2023-03-19T09:55:02;12.57;;;11.45;;
32228;SDS011;18717;48.034;11.186;2023-03-19T09:57:31;13.67;;;12.47;;
32228;SDS011;18717;48.034;11.186;2023-03-19T10:00:00;13.10;;;12.13;;
32228;SDS011;18717;48.034;11.186;2023-03-19T10:02:37;13.35;;;12.35;;
32228;SDS011;18717;48.034;11.186;2023-03-19T10:05:10;13.75;;;12.40;;
32228;SDS011;18717;48.034;11.186;2023-03-19T10:07:47;13.07;;;12.07;;
32228;SDS011;18717;48.034;11.186;2023-03-19T10:10:26;13.05;;;12.15;;
32228;SDS011;18717;48.034;11.186;2023-03-19T10:13:03;12.77;;;11.77;;
32228;SDS011;18717;48.034;11.186;2023-03-19T10:15:35;15.10;;;12.73;;
32228;SDS011;18717;48.034;11.186;2023-03-19T10:18:05;13.93;;;12.75;;
32228;SDS011;18717;48.034;11.186;2023-03-19T10:20:38;12.85;;;11.90;;
32228;SDS011;18717;48.034;11.186;2023-03-19T10:23:17;12.50;;;11.60;;
32228;SDS011;18717;48.034;11.186;2023-03-19T10:25:51;13.20;;;12.20;;
32228;SDS011;18717;48.034;11.186;2023-03-19T10:28:21;13.85;;;12.43;;
32228;SDS011;18717;48.034;11.186;2023-03-19T10:30:52;13.57;;;12.13;;
32228;SDS011;18717;48.034;11.186;2023-03-19T10:33:24;13.38;;;12.40;;
32228;SDS011;18717;48.034;11.186;2023-03-19T10:35:55;13.68;;;12.55;;
32228;SDS011;18717;48.034;11.186;2023-03-19T10:38:26;13.23;;;11.85;;
32228;SDS011;18717;48.034;11.186;2023-03-19T10:40:58;13.07;;;12.18;;
32228;SDS011;18717;48.034;11.186;2023-03-19T10:43:30;13.38;;;12.48;;
32228;SDS011;18717;48.034;11.186;2023-03-19T10:45:59;14.48;;;12.93;;
32228;SDS011;18717;48.034;11.186;2023-03-19T10:48:27;12.70;;;11.77;;
32228;SDS011;18717;48.034;11.186;2023-03-19T10:50:56;13.50;;;12.32;;
32228;SDS011;18717;48.034;11.186;2023-03-19T10:53:28;13.35;;;12.25;;
32228;SDS011;18717;48.034;11.186;2023-03-19T10:56:02;13.85;;;12.20;;
32228;SDS011;18717;48.034;11.186;2023-03-19T10:58:31;13.82;;;12.50;;
32228;SDS011;18717;48.034;11.186;2023-03-19T11:01:02;13.45;;;12.25;;
32228;SDS011;18717;48.034;11.186;2023-03-19T11:03:32;13.20;;;12.10;;
32228;SDS011;18717;48.034;11.186;2023-03-19T11:06:02;12.63;;;11.77;;
32228;SDS011;18717;48.034;11.186;2023-03-19T11:08:34;13.75;;;12.52;;
32228;SDS011;18717;48.034;11.186;2023-03-19T11:11:03;13.32;;;12.25;;
32228;SDS011;18717;48.034;11.186;2023-03-19T11:13:32;13.90;;;12.73;;
32228;SDS011;18717;48.034;11.186;2023-03-19T11:16:00;13.20;;;12.15;;
32228;SDS011;18717;48.034;11.186;2023-03-19T11:18:35;12.88;;;11.77;;
32228;SDS011;18717;48.034;11.186;2023-03-19T11:21:05;13.70;;;12.68;;
32228;SDS011;18717;48.034;11.186;2023-03-19T11:23:38;13.18;;;12.25;;
32228;SDS011;18717;48.034;11.186;2023-03-19T11:26:07;12.82;;;11.90;;
32228;SDS011;18717;48.034;11.186;2023-03-19T11:28:35;13.35;;;12.18;;
32228;SDS011;18717;48.034;11.186;2023-03-19T11:31:05;12.95;;;11.95;;
32228;SDS011;18717;48.034;11.186;2023-03-19T11:33:42;13.77;;;12.57;;
32228;SDS011;18717;48.034;11.186;2023-03-19T11:36:18;13.23;;;12.18;;
32228;SDS011;18717;48.034;11.186;2023-03-19T11:38:52;13.23;;;12.10;;
32228;SDS011;18717;48.034;11.186;2023-03-19T11:41:28;13.48;;;12.38;;
32228;SDS011;18717;48.034;11.186;2023-03-19T11:44:02;12.88;;;11.77;;
32228;SDS011;18717;48.034;11.186;2023-03-19T11:46:33;13.20;;;12.18;;
32228;SDS011;18717;48.034;11.186;2023-03-19T11:52:02;12.70;;;11.70;;
32228;SDS011;18717;48.034;11.186;2023-03-19T11:54:41;12.48;;;11.57;;
32228;SDS011;18717;48.034;11.186;2023-03-19T11:57:13;12.63;;;11.63;;
32228;SDS011;18717;48.034;11.186;2023-03-19T11:59:54;12.55;;;11.57;;
32228;SDS011;18717;48.034;11.186;2023-03-19T12:05:40;12.90;;;11.85;;
32228;SDS011;18717;48.034;11.186;2023-03-19T12:08:16;13.77;;;12.45;;
32228;SDS011;18717;48.034;11.186;2023-03-19T12:10:57;13.77;;;12.32;;
32228;SDS011;18717;48.034;11.186;2023-03-19T12:13:30;12.35;;;11.55;;
32228;SDS011;18717;48.034;11.186;2023-03-19T12:16:08;13.45;;;12.32;;
32228;SDS011;18717;48.034;11.186;2023-03-19T12:18:48;12.20;;;11.35;;
32228;SDS011;18717;48.034;11.186;2023-03-19T12:21:27;12.82;;;11.60;;
32228;SDS011;18717;48.034;11.186;2023-03-19T12:24:02;12.43;;;11.52;;
32228;SDS011;18717;48.034;11.186;2023-03-19T12:26:37;14.13;;;13.00;;
32228;SDS011;18717;48.034;11.186;2023-03-19T12:29:12;11.93;;;11.25;;
32228;SDS011;18717;48.034;11.186;2023-03-19T12:31:51;12.13;;;11.43;;
32228;SDS011;18717;48.034;11.186;2023-03-19T12:34:30;12.35;;;11.35;;
32228;SDS011;18717;48.034;11.186;2023-03-19T12:37:05;12.55;;;11.60;;
32228;SDS011;18717;48.034;11.186;2023-03-19T12:39:39;11.65;;;10.85;;
32228;SDS011;18717;48.034;11.186;2023-03-19T12:42:11;14.07;;;13.07;;
32228;SDS011;18717;48.034;11.186;2023-03-19T12:44:43;11.70;;;11.00;;
32228;SDS011;18717;48.034;11.186;2023-03-19T12:47:13;12.93;;;11.98;;
32228;SDS011;18717;48.034;11.186;2023-03-19T12:49:45;12.73;;;11.63;;
32228;SDS011;18717;48.034;11.186;2023-03-19T12:52:18;12.75;;;11.90;;
32228;SDS011;18717;48.034;11.186;2023-03-19T12:54:49;12.68;;;11.77;;
32228;SDS011;18717;48.034;11.186;2023-03-19T12:57:24;13.38;;;12.27;;
32228;SDS011;18717;48.034;11.186;2023-03-19T12:59:57;12.80;;;11.90;;
32228;SDS011;18717;48.034;11.186;2023-03-19T13:04:59;14.20;;;13.20;;
32228;SDS011;18717;48.034;11.186;2023-03-19T13:07:32;12.77;;;11.90;;
32228;SDS011;18717;48.034;11.186;2023-03-19T13:10:05;12.98;;;12.10;;
32228;SDS011;18717;48.034;11.186;2023-03-19T13:12:37;13.03;;;11.97;;
32228;SDS011;18717;48.034;11.186;2023-03-19T13:15:06;12.07;;;11.02;;
32228;SDS011;18717;48.034;11.186;2023-03-19T13:17:38;12.45;;;11.60;;
32228;SDS011;18717;48.034;11.186;2023-03-19T13:20:18;11.43;;;10.63;;
32228;SDS011;18717;48.034;11.186;2023-03-19T13:22:58;12.75;;;11.85;;
32228;SDS011;18717;48.034;11.186;2023-03-19T13:25:30;12.63;;;11.52;;
32228;SDS011;18717;48.034;11.186;2023-03-19T13:28:00;12.88;;;11.93;;
32228;SDS011;18717;48.034;11.186;2023-03-19T13:30:33;13.00;;;12.10;;
32228;SDS011;18717;48.034;11.186;2023-03-19T13:33:04;13.50;;;12.27;;
32228;SDS011;18717;48.034;11.186;2023-03-19T13:35:34;13.55;;;12.63;;
32228;SDS011;18717;48.034;11.186;2023-03-19T13:38:06;14.13;;;13.02;;
32228;SDS011;18717;48.034;11.186;2023-03-19T13:40:44;12.75;;;11.95;;
32228;SDS011;18717;48.034;11.186;2023-03-19T13:46:34;14.20;;;13.02;;
32228;SDS011;18717;48.034;11.186;2023-03-19T13:49:22;12.77;;;11.88;;
32228;SDS011;18717;48.034;11.186;2023-03-19T13:51:56;13.32;;;12.30;;
32228;SDS011;18717;48.034;11.186;2023-03-19T13:54:36;13.60;;;12.52;;
32228;SDS011;18717;48.034;11.186;2023-03-19T13:59:52;12.02;;;11.32;;
32228;SDS011;18717;48.034;11.186;2023-03-19T14:05:15;13.30;;;12.50;;
32228;SDS011;18717;48.034;11.186;2023-03-19T14:07:46;12.48;;;11.38;;
32228;SDS011;18717;48.034;11.186;2023-03-19T14:10:18;13.65;;;12.52;;
32228;SDS011;18717;48.034;11.186;2023-03-19T14:12:50;13.45;;;12.32;;
32228;SDS011;18717;48.034;11.186;2023-03-19T14:15:19;13.48;;;12.43;;
32228;SDS011;18717;48.034;11.186;2023-03-19T14:17:54;13.30;;;12.18;;
32228;SDS011;18717;48.034;11.186;2023-03-19T14:20:26;13.98;;;12.88;;
32228;SDS011;18717;48.034;11.186;2023-03-19T14:23:17;13.98;;;12.80;;
32228;SDS011;18717;48.034;11.186;2023-03-19T14:26:00;13.07;;;11.93;;
32228;SDS011;18717;48.034;11.186;2023-03-19T14:28:37;14.40;;;13.15;;
32228;SDS011;18717;48.034;11.186;2023-03-19T14:31:16;12.83;;;11.73;;
32228;SDS011;18717;48.034;11.186;2023-03-19T14:33:49;12.48;;;11.43;;
32228;SDS011;18717;48.034;11.186;2023-03-19T14:36:20;12.70;;;11.70;;
32228;SDS011;18717;48.034;11.186;2023-03-19T14:38:49;12.30;;;11.27;;
32228;SDS011;18717;48.034;11.186;2023-03-19T14:41:18;13.07;;;12.05;;
32228;SDS011;18717;48.034;11.186;2023-03-19T14:43:52;12.27;;;11.15;;